Time;durP1;ratioP1;P1;durP2;ratioP2;P2;SDS_P1;SDS_P2;PMS_P1;PMS_P2;Temp;Humidity;BMP_temperature;BMP_pressure;BME280_temperature;BME280_humidity;BME280_pressure;Samples;Min_cycle;Max_cycle;Signal;HPM_P1;HPM_P2
2022/06/10 00:00:18;;;;;;;20.00;13.05;;;;;;;13.44;77.73;101954.34;5092430;28;20494;-52
2022/06/10 00:02:43;;;;;;;21.15;12.63;;;;;;;13.33;78.28;101957.22;5092087;28;20114;-49
2022/06/10 00:05:14;;;;;;;20.92;13.23;;;;;;;13.24;78.61;101957.06;5092050;28;20115;-52
2022/06/10 00:07:40;;;;;;;21.88;13.68;;;;;;;13.13;78.97;101958.28;5091980;28;20032;-52
2022/06/10 00:10:08;;;;;;;22.10;13.23;;;;;;;13.13;79.38;101957.47;5092084;28;20372;-54
2022/06/10 00:12:33;;;;;;;21.90;13.27;;;;;;;13.08;79.69;101950.84;5092657;28;20145;-54
2022/06/10 00:14:59;;;;;;;21.60;13.35;;;;;;;13.03;80.49;101955.66;5092578;28;20118;-55
2022/06/10 00:17:24;;;;;;;21.45;13.27;;;;;;;12.91;80.25;101956.06;5092616;28;20038;-54
2022/06/10 00:19:49;;;;;;;24.08;14.02;;;;;;;12.92;80.10;101964.13;5092382;28;20240;-56
2022/06/10 00:22:15;;;;;;;19.80;13.15;;;;;;;12.89;80.58;101964.69;5092438;28;20082;-55
2022/06/10 00:24:40;;;;;;;21.02;13.70;;;;;;;12.81;80.94;101954.22;5092943;28;20389;-55
2022/06/10 00:27:05;;;;;;;23.25;13.50;;;;;;;12.76;81.28;101955.13;5092410;28;20047;-54
2022/06/10 00:29:32;;;;;;;20.98;13.00;;;;;;;12.74;81.54;101962.09;5092983;28;20031;-54
2022/06/10 00:31:57;;;;;;;22.98;13.68;;;;;;;12.69;81.83;101968.53;5092236;28;20047;-55
2022/06/10 00:34:23;;;;;;;20.33;13.95;;;;;;;12.61;81.90;101969.97;5090797;28;20020;-53
2022/06/10 00:36:48;;;;;;;21.23;13.20;;;;;;;12.59;82.09;101963.88;5091819;28;20379;-53
2022/06/10 00:39:13;;;;;;;22.17;13.32;;;;;;;12.57;82.06;101960.56;5091632;28;20034;-54
2022/06/10 00:41:41;;;;;;;23.27;13.32;;;;;;;12.43;82.58;101952.09;5092145;28;20105;-54
2022/06/10 00:44:32;;;;;;;21.23;13.50;;;;;;;12.45;82.94;101951.81;5091560;28;20375;-52
2022/06/10 00:46:58;;;;;;;22.33;13.73;;;;;;;12.32;83.96;101953.34;5090469;28;20024;-54
2022/06/10 00:49:24;;;;;;;20.50;13.30;;;;;;;12.24;83.91;101957.56;5091242;28;20055;-53
2022/06/10 00:51:54;;;;;;;21.60;13.48;;;;;;;12.22;84.00;101948.69;5091271;28;20062;-51
2022/06/10 00:54:40;;;;;;;21.45;13.20;;;;;;;12.17;84.22;101959.84;5091211;28;20059;-53
2022/06/10 00:57:11;;;;;;;19.85;13.43;;;;;;;12.12;85.02;101951.53;5090594;28;20054;-52
2022/06/10 00:59:58;;;;;;;23.02;13.63;;;;;;;12.00;85.10;101949.94;5091735;28;20195;-53
2022/06/10 01:02:27;;;;;;;19.85;13.32;;;;;;;11.83;85.88;101939.25;5091349;28;20340;-53
2022/06/10 01:04:57;;;;;;;22.65;13.73;;;;;;;11.92;86.23;101953.31;5091174;28;20028;-53
2022/06/10 01:07:26;;;;;;;20.88;12.73;;;;;;;11.85;86.29;101944.50;5091500;28;20095;-54
2022/06/10 01:09:53;;;;;;;19.58;13.95;;;;;;;11.90;86.47;101952.78;5090838;28;20050;-53
2022/06/10 01:12:27;;;;;;;20.30;13.40;;;;;;;11.90;86.38;101961.13;5091364;28;20103;-54
2022/06/10 01:15:10;;;;;;;21.00;13.20;;;;;;;11.92;86.39;101952.50;5091745;28;20028;-53
2022/06/10 01:18:02;;;;;;;20.52;13.38;;;;;;;11.85;85.99;101944.50;5091469;28;20050;-49
2022/06/10 01:20:43;;;;;;;22.00;13.88;;;;;;;11.86;86.24;101941.44;5090832;28;20486;-52
2022/06/10 01:23:34;;;;;;;21.67;13.82;;;;;;;11.92;86.36;101950.53;5091416;28;20031;-54
2022/06/10 01:26:12;;;;;;;21.27;13.25;;;;;;;11.97;86.79;101955.22;5091181;28;20531;-51
2022/06/10 01:29:23;;;;;;;19.85;12.57;;;;;;;12.05;86.33;101949.09;5091624;28;20024;-50
2022/06/10 01:31:57;;;;;;;21.75;13.88;;;;;;;12.04;86.96;101946.63;5091687;28;20031;-51
2022/06/10 01:34:49;;;;;;;23.55;13.10;;;;;;;12.25;86.08;101956.44;5091554;28;20473;-50
2022/06/10 01:37:42;;;;;;;21.92;13.35;;;;;;;12.25;85.56;101944.50;5091149;28;20377;-49
2022/06/10 01:40:54;;;;;;;22.25;13.38;;;;;;;12.45;84.92;101949.03;5091273;28;20077;-50
2022/06/10 01:43:33;;;;;;;20.90;13.35;;;;;;;12.51;85.47;101945.09;5091229;28;20043;-49
2022/06/10 01:46:12;;;;;;;22.52;12.93;;;;;;;12.50;85.57;101937.06;5091719;28;20071;-53
2022/06/10 01:49:05;;;;;;;21.70;12.80;;;;;;;12.59;84.81;101949.19;5091104;28;20107;-52
2022/06/10 01:51:41;;;;;;;21.92;13.30;;;;;;;12.65;84.92;101945.22;5091050;28;20533;-52
2022/06/10 01:54:16;;;;;;;25.17;13.07;;;;;;;12.71;84.12;101955.16;5091412;28;20467;-50
2022/06/10 01:56:49;;;;;;;20.85;12.88;;;;;;;12.74;84.00;101945.44;5077137;28;20436;-49
2022/06/10 01:59:23;;;;;;;21.17;12.50;;;;;;;12.77;83.51;101942.88;5071502;28;20044;-50
2022/06/10 02:02:01;;;;;;;21.25;12.38;;;;;;;12.77;83.46;101947.59;5070708;28;20456;-53
2022/06/10 02:04:31;;;;;;;24.63;13.27;;;;;;;12.75;83.42;101956.22;5070873;28;20085;-53
2022/06/10 02:07:04;;;;;;;22.08;12.88;;;;;;;12.79;83.83;101956.47;5070913;28;20091;-51
2022/06/10 02:09:36;;;;;;;22.83;12.60;;;;;;;12.77;83.78;101947.59;5070198;28;20460;-50
2022/06/10 02:12:12;;;;;;;22.80;13.05;;;;;;;12.80;83.56;101947.03;5070087;28;20024;-50
2022/06/10 02:14:48;;;;;;;20.27;12.07;;;;;;;12.79;83.45;101945.38;5070693;28;20101;-52
2022/06/10 02:17:14;;;;;;;22.42;12.27;;;;;;;12.84;83.43;101950.03;5070985;28;20028;-50
2022/06/10 02:19:45;;;;;;;21.23;12.70;;;;;;;12.93;83.68;101953.81;5070155;28;20025;-49
2022/06/10 02:22:19;;;;;;;21.38;12.63;;;;;;;12.94;83.15;101947.16;5070753;28;20038;-50
2022/06/10 02:24:49;;;;;;;19.95;11.45;;;;;;;12.99;83.21;101955.41;5070489;28;20055;-50
2022/06/10 02:27:18;;;;;;;19.90;11.43;;;;;;;13.02;82.98;101945.69;5067701;22;20144;-52
2022/06/10 02:29:59;;;;;;;19.98;11.80;;;;;;;13.03;82.68;101950.09;5051450;28;20060;-51
2022/06/10 02:32:25;;;;;;;22.23;11.70;;;;;;;13.11;82.79;101966.94;5051477;28;20169;-53
2022/06/10 02:34:50;;;;;;;22.35;12.23;;;;;;;13.13;82.28;101963.03;5050740;28;20440;-53
2022/06/10 02:37:32;;;;;;;20.30;11.73;;;;;;;13.17;82.56;101967.72;5051174;28;20111;-52
2022/06/10 02:40:09;;;;;;;21.50;11.95;;;;;;;13.20;82.45;101960.72;5054819;28;20068;-52
2022/06/10 02:42:45;;;;;;;19.98;12.02;;;;;;;13.16;82.51;101963.28;5054802;28;20043;-51
2022/06/10 02:45:29;;;;;;;20.63;12.30;;;;;;;13.25;81.70;101969.00;5055168;28;20052;-53
2022/06/10 02:48:00;;;;;;;21.38;12.40;;;;;;;13.25;82.15;101977.34;5054721;28;20025;-50
2022/06/10 02:50:26;;;;;;;20.50;12.65;;;;;;;13.24;82.08;101964.56;5054659;28;20494;-54
2022/06/10 02:52:52;;;;;;;20.20;12.50;;;;;;;13.24;82.58;101972.91;5054900;28;20025;-51
2022/06/10 02:55:21;;;;;;;22.70;12.35;;;;;;;13.23;82.53;101963.72;5055098;28;20040;-53
2022/06/10 03:01:12;;;;;;;22.13;12.60;;;;;;;13.26;82.83;101956.78;5055144;28;20035;-53
2022/06/10 03:03:53;;;;;;;23.35;11.80;;;;;;;13.29;82.42;101956.16;5050994;28;20041;-54
2022/06/10 03:06:40;;;;;;;22.27;12.18;;;;;;;13.28;82.57;101973.94;5053034;28;20450;-54
2022/06/10 03:09:17;;;;;;;19.38;11.93;;;;;;;13.29;83.21;101969.25;5054068;28;20029;-55
2022/06/10 03:11:48;;;;;;;23.27;12.95;;;;;;;13.27;83.65;101970.38;5053505;28;20029;-49
2022/06/10 03:15:02;;;;;;;21.17;12.57;;;;;;;13.29;82.82;101969.25;5053142;28;20064;-53
2022/06/10 03:18:01;;;;;;;20.70;11.75;;;;;;;13.25;82.79;101967.03;5053624;28;20031;-51
2022/06/10 03:20:38;;;;;;;22.15;11.30;;;;;;;13.31;83.02;101978.13;5052966;28;20124;-50
2022/06/10 03:23:30;;;;;;;21.50;11.48;;;;;;;13.35;83.24;101977.22;5053545;28;20032;-52
2022/06/10 03:26:08;;;;;;;18.92;11.27;;;;;;;13.34;83.53;101985.84;5052860;28;20049;-52
2022/06/10 03:28:50;;;;;;;21.77;11.95;;;;;;;13.39;83.28;101977.47;5052820;28;20419;-52
2022/06/10 03:31:39;;;;;;;21.05;11.82;;;;;;;13.39;83.41;101986.63;5053545;28;20555;-52
2022/06/10 03:34:20;;;;;;;22.58;12.13;;;;;;;13.44;83.02;101990.50;5052944;28;20477;-53
2022/06/10 03:36:46;;;;;;;20.63;11.65;;;;;;;13.47;83.43;101995.44;5053848;28;20483;-53
2022/06/10 03:39:13;;;;;;;22.52;11.90;;;;;;;13.54;82.98;101993.94;5053536;28;20020;-52
2022/06/10 03:42:10;;;;;;;21.63;11.30;;;;;;;13.58;82.67;101988.63;5053793;28;20083;-52
2022/06/10 03:44:37;;;;;;;19.98;11.77;;;;;;;13.59;83.28;101995.03;5050576;28;20033;-51
2022/06/10 03:47:05;;;;;;;22.30;11.05;;;;;;;13.57;83.22;101978.63;5053733;28;20452;-51
2022/06/10 03:49:40;;;;;;;19.63;11.60;;;;;;;13.64;83.23;101979.09;5052679;28;20459;-53
2022/06/10 03:52:06;;;;;;;21.20;11.60;;;;;;;13.65;83.36;101991.84;5053618;28;20033;-51
2022/06/10 03:54:31;;;;;;;18.83;12.10;;;;;;;13.65;83.90;101983.50;5052482;28;20032;-54
2022/06/10 03:56:56;;;;;;;20.92;12.27;;;;;;;13.65;84.89;101989.06;5053224;28;20025;-52
2022/06/10 03:59:22;;;;;;;19.75;11.32;;;;;;;13.63;84.94;102001.63;5052998;28;20025;-53
2022/06/10 04:01:47;;;;;;;20.52;11.25;;;;;;;13.63;84.88;102002.47;5053573;28;20029;-52
2022/06/10 04:04:12;;;;;;;18.38;11.45;;;;;;;13.65;84.45;101999.38;5052824;28;20036;-49
2022/06/10 04:06:38;;;;;;;19.08;11.25;;;;;;;13.64;84.40;102003.28;5052815;28;20024;-52
2022/06/10 04:09:03;;;;;;;23.35;11.52;;;;;;;13.64;83.79;102004.13;5052917;28;20384;-50
2022/06/10 04:11:28;;;;;;;20.98;11.73;;;;;;;13.66;84.13;102010.19;5052703;28;20083;-51
2022/06/10 04:13:54;;;;;;;18.98;10.93;;;;;;;13.67;84.05;102000.72;5052226;28;20029;-53
2022/06/10 04:16:19;;;;;;;18.67;11.25;;;;;;;13.70;83.94;102004.84;5052816;28;20037;-53
2022/06/10 04:18:44;;;;;;;21.58;10.75;;;;;;;13.70;84.37;102000.13;5052795;28;20028;-50
2022/06/10 04:21:10;;;;;;;20.17;10.85;;;;;;;13.75;84.52;102012.31;5053065;28;20086;-50
2022/06/10 04:23:35;;;;;;;21.17;10.85;;;;;;;13.77;84.91;102010.91;5053084;28;20463;-53
2022/06/10 04:26:00;;;;;;;19.08;10.95;;;;;;;13.77;84.88;102004.50;5052380;28;20049;-53
2022/06/10 04:28:26;;;;;;;21.30;10.55;;;;;;;13.82;85.13;102016.38;5052472;28;20025;-51
2022/06/10 04:30:52;;;;;;;21.77;10.82;;;;;;;13.82;84.57;102018.34;5052834;28;20078;-51
2022/06/10 04:33:19;;;;;;;20.52;10.07;;;;;;;13.86;85.61;102024.94;5052591;28;20029;-53
2022/06/10 04:35:47;;;;;;;21.60;10.60;;;;;;;13.83;85.01;102011.66;5052652;28;20456;-54
2022/06/10 04:38:16;;;;;;;19.25;10.13;;;;;;;13.84;85.00;102008.56;5052526;28;20040;-52
2022/06/10 04:40:41;;;;;;;19.50;10.27;;;;;;;13.94;84.63;102013.13;5052658;28;20111;-53
2022/06/10 04:43:07;;;;;;;22.35;10.60;;;;;;;14.02;84.09;102012.50;5052245;28;20095;-53
2022/06/10 04:45:37;;;;;;;22.73;10.75;;;;;;;14.10;83.85;102013.75;5052726;28;20104;-52
2022/06/10 04:48:03;;;;;;;23.23;10.15;;;;;;;14.22;83.83;102009.69;5052264;28;20040;-52
2022/06/10 04:50:30;;;;;;;24.40;10.57;;;;;;;14.31;83.60;102007.84;5052536;28;20104;-54
2022/06/10 04:52:56;;;;;;;21.48;10.20;;;;;;;14.37;83.52;102014.16;5051942;28;20036;-52
2022/06/10 04:55:23;;;;;;;25.80;11.27;;;;;;;14.41;83.69;102013.25;5052371;28;20029;-53
2022/06/10 04:57:48;;;;;;;21.70;10.38;;;;;;;14.46;83.88;102013.16;5052255;28;20037;-50
2022/06/10 05:00:18;;;;;;;26.67;11.48;;;;;;;14.45;84.02;102016.25;5052174;28;20078;-53
2022/06/10 05:02:43;;;;;;;22.20;12.10;;;;;;;14.46;85.11;102013.16;5051878;28;20039;-53
2022/06/10 05:05:09;;;;;;;26.80;11.73;;;;;;;14.41;85.01;102012.41;5052167;28;20024;-53
2022/06/10 05:07:34;;;;;;;25.73;12.43;;;;;;;14.41;85.66;102009.63;5052292;28;20037;-51
2022/06/10 05:10:00;;;;;;;24.60;11.90;;;;;;;14.46;85.69;102006.78;5052212;28;20037;-54
2022/06/10 05:12:25;;;;;;;23.70;11.80;;;;;;;14.48;84.83;102010.91;5052286;28;20029;-51
2022/06/10 05:14:50;;;;;;;20.30;11.02;;;;;;;14.53;84.76;102011.97;5052089;28;20416;-52
2022/06/10 05:17:16;;;;;;;23.70;11.82;;;;;;;14.53;84.94;102012.78;5052207;28;20049;-52
2022/06/10 05:19:41;;;;;;;24.48;12.13;;;;;;;14.50;85.23;102010.59;5051916;28;20017;-52
2022/06/10 05:22:07;;;;;;;23.75;11.63;;;;;;;14.49;85.05;102011.75;5052016;28;20115;-50
2022/06/10 05:24:32;;;;;;;21.58;11.73;;;;;;;14.52;85.03;102008.34;5052246;28;20096;-54
2022/06/10 05:26:57;;;;;;;21.33;11.55;;;;;;;14.57;85.06;102004.63;5051970;28;20186;-52
2022/06/10 05:29:23;;;;;;;21.80;11.45;;;;;;;14.53;85.08;102000.81;5051973;28;20517;-52
2022/06/10 05:31:48;;;;;;;20.50;11.25;;;;;;;14.54;85.66;102006.09;5051778;28;20032;-53
2022/06/10 05:36:57;;;;;;;20.65;11.65;;;;;;;14.54;85.37;102000.50;5051972;28;20036;-50
2022/06/10 05:39:22;;;;;;;21.48;11.63;;;;;;;14.54;85.57;101996.91;5051797;28;20037;-50
2022/06/10 05:42:06;;;;;;;20.35;11.55;;;;;;;14.59;85.33;101996.81;5051731;28;20025;-51
2022/06/10 05:44:40;;;;;;;19.38;11.02;;;;;;;14.62;85.87;101999.81;5051941;28;20104;-51
2022/06/10 05:47:07;;;;;;;19.23;11.38;;;;;;;14.65;85.09;101999.22;5051588;28;20479;-52
2022/06/10 05:49:35;;;;;;;22.05;11.15;;;;;;;14.71;84.87;101999.97;5051653;28;20027;-50
2022/06/10 05:52:01;;;;;;;23.35;10.73;;;;;;;14.82;85.23;102003.38;5051471;28;20029;-50
2022/06/10 05:54:26;;;;;;;21.30;11.10;;;;;;;14.87;84.55;101997.75;5051659;28;20036;-51
2022/06/10 05:56:52;;;;;;;21.75;11.30;;;;;;;14.94;84.12;102000.94;5051528;28;20067;-51
2022/06/10 05:59:18;;;;;;;24.00;11.38;;;;;;;15.04;83.70;102002.69;5051800;28;20032;-52
2022/06/10 06:01:44;;;;;;;20.25;10.20;;;;;;;15.12;83.63;102003.94;5051170;28;20025;-53
2022/06/10 06:04:09;;;;;;;21.15;10.70;;;;;;;15.17;83.20;102006.63;5051840;28;20029;-52
2022/06/10 06:06:34;;;;;;;20.50;10.80;;;;;;;15.24;82.83;102014.56;5051525;28;20047;-52
2022/06/10 06:09:00;;;;;;;23.20;11.95;;;;;;;15.31;82.67;102009.41;5051595;28;20472;-52
2022/06/10 06:11:25;;;;;;;20.35;10.80;;;;;;;15.43;82.64;102006.94;5051521;28;20471;-50
2022/06/10 06:13:51;;;;;;;19.50;10.80;;;;;;;15.53;81.94;102011.47;5054890;28;20028;-53
2022/06/10 06:16:18;;;;;;;21.15;11.18;;;;;;;15.64;80.99;102014.03;5054903;28;20163;-51
2022/06/10 06:18:44;;;;;;;19.73;10.88;;;;;;;15.81;80.82;102017.00;5055024;28;20024;-51
2022/06/10 06:21:09;;;;;;;18.67;10.40;;;;;;;15.97;80.41;102016.69;5054860;28;20545;-51
2022/06/10 06:23:34;;;;;;;20.95;10.32;;;;;;;16.02;79.99;102011.81;5054968;28;20151;-52
2022/06/10 06:26:00;;;;;;;20.65;10.60;;;;;;;16.01;79.92;102010.16;5055438;28;20132;-49
2022/06/10 06:28:27;;;;;;;21.08;11.00;;;;;;;16.01;79.85;102023.28;5055217;28;20025;-53
2022/06/10 06:30:52;;;;;;;19.10;10.43;;;;;;;16.04;80.02;102017.91;5055362;28;20360;-50
2022/06/10 06:33:17;;;;;;;19.00;10.88;;;;;;;16.15;79.35;102018.47;5055155;28;20478;-50
2022/06/10 06:35:49;;;;;;;21.52;10.30;;;;;;;16.22;79.41;102020.84;5046728;28;20459;-54
2022/06/10 06:38:14;;;;;;;17.95;10.32;;;;;;;16.38;79.20;102024.09;5053383;28;20041;-51
2022/06/10 06:40:41;;;;;;;22.20;10.10;;;;;;;16.46;78.69;102017.72;5054693;28;20032;-51
2022/06/10 06:43:08;;;;;;;19.83;10.15;;;;;;;16.52;77.88;102018.44;5054983;28;20100;-51
2022/06/10 06:45:34;;;;;;;19.42;10.48;;;;;;;16.52;77.29;102018.44;5054732;28;20468;-53
2022/06/10 06:48:01;;;;;;;19.30;9.88;;;;;;;16.55;77.73;102020.56;5055206;28;20028;-51
2022/06/10 06:50:30;;;;;;;17.90;9.90;;;;;;;16.58;77.93;102019.13;5054968;28;20041;-50
2022/06/10 06:52:55;;;;;;;17.23;9.50;;;;;;;16.67;76.93;102026.41;5053248;28;20041;-51
2022/06/10 06:55:21;;;;;;;20.00;10.20;;;;;;;16.69;76.85;102023.28;5054283;28;20017;-51
2022/06/10 06:57:47;;;;;;;17.85;9.43;;;;;;;16.74;76.59;102030.72;5054591;28;20026;-51
2022/06/10 07:00:15;;;;;;;17.77;9.70;;;;;;;16.73;76.83;102029.06;5054372;28;20075;-52
2022/06/10 07:02:40;;;;;;;19.98;9.90;;;;;;;16.79;77.17;102033.38;5054777;28;20036;-49
2022/06/10 07:05:06;;;;;;;17.85;9.77;;;;;;;16.84;76.54;102041.63;5053549;28;20033;-51
2022/06/10 07:07:32;;;;;;;18.65;9.70;;;;;;;16.91;76.41;102041.97;5039380;28;20045;-49
2022/06/10 07:09:58;;;;;;;16.83;9.80;;;;;;;16.96;76.31;102032.66;5033205;28;20036;-50
2022/06/10 07:12:23;;;;;;;17.15;9.40;;;;;;;17.02;76.19;102037.00;5034237;28;20037;-52
2022/06/10 07:14:48;;;;;;;18.52;10.13;;;;;;;17.07;75.70;102038.81;5034654;28;20040;-51
2022/06/10 07:17:14;;;;;;;19.50;9.90;;;;;;;17.14;75.59;102030.78;5034200;28;20096;-50
2022/06/10 07:19:39;;;;;;;19.90;10.13;;;;;;;17.22;75.36;102037.56;5033818;28;20033;-53
2022/06/10 07:22:06;;;;;;;19.05;10.02;;;;;;;17.31;74.97;102033.66;5041940;28;20021;-52
2022/06/10 07:24:32;;;;;;;16.95;9.60;;;;;;;17.47;75.06;102027.63;5052068;28;20116;-50
2022/06/10 07:27:00;;;;;;;18.73;9.60;;;;;;;17.64;73.95;102032.44;5054142;28;20098;-54
2022/06/10 07:29:26;;;;;;;18.95;9.63;;;;;;;17.78;74.07;102029.50;5053577;28;20032;-50
2022/06/10 07:31:51;;;;;;;17.17;9.40;;;;;;;17.96;73.06;102032.31;5053718;28;20104;-52
2022/06/10 07:34:16;;;;;;;19.20;9.55;;;;;;;18.04;72.22;102037.16;5053340;28;20399;-52
2022/06/10 07:36:42;;;;;;;17.45;9.30;;;;;;;18.02;70.85;102042.25;5054056;28;20021;-46
2022/06/10 07:39:07;;;;;;;15.38;9.45;;;;;;;18.09;71.93;102036.97;5054341;28;20053;-48
2022/06/10 07:44:20;;;;;;;19.55;10.13;;;;;;;18.27;70.37;102039.75;5053816;28;20529;-46
2022/06/10 07:46:50;;;;;;;19.08;9.93;;;;;;;18.39;70.77;102026.75;5053091;28;20036;-51
2022/06/10 07:49:15;;;;;;;18.65;10.10;;;;;;;18.45;70.46;102027.41;5053866;28;20082;-51
2022/06/10 07:51:41;;;;;;;18.13;9.70;;;;;;;18.58;69.84;102036.75;5052434;28;20017;-54
2022/06/10 07:54:07;;;;;;;18.20;9.70;;;;;;;18.67;68.77;102036.75;5035680;28;20033;-53
2022/06/10 07:56:32;;;;;;;18.92;10.00;;;;;;;18.74;68.21;102031.47;5030686;28;20036;-51
2022/06/10 07:58:58;;;;;;;17.83;9.25;;;;;;;18.86;67.45;102026.00;5031561;28;20057;-52
2022/06/10 08:01:25;;;;;;;20.90;9.90;;;;;;;18.90;66.78;102033.72;5031563;28;20032;-49
2022/06/10 08:03:50;;;;;;;16.10;9.18;;;;;;;18.95;66.65;102025.97;5031143;28;20059;-51
2022/06/10 08:06:18;;;;;;;16.70;9.70;;;;;;;18.92;67.15;102017.38;5031053;28;20033;-50
2022/06/10 08:08:43;;;;;;;18.02;9.70;;;;;;;19.01;67.40;102019.06;5031467;28;20496;-52
2022/06/10 08:11:08;;;;;;;14.80;9.60;;;;;;;19.05;67.34;102027.63;5029772;28;20036;-53
2022/06/10 08:13:34;;;;;;;16.88;10.10;;;;;;;19.06;67.46;102025.63;5031319;28;20472;-52
2022/06/10 08:16:00;;;;;;;17.95;9.60;;;;;;;19.21;67.50;102027.03;5030743;28;20037;-53
2022/06/10 08:18:26;;;;;;;16.08;10.00;;;;;;;19.37;66.52;102042.13;5031236;28;20029;-51
2022/06/10 08:23:37;;;;;;;19.23;9.85;;;;;;;19.32;65.48;102026.31;5031812;28;20396;-52
2022/06/10 08:26:06;;;;;;;18.80;9.32;;;;;;;19.30;65.52;102025.03;5031559;28;20037;-51
2022/06/10 08:28:32;;;;;;;18.80;9.80;;;;;;;19.41;65.61;102029.09;5032051;28;20029;-51
2022/06/10 08:30:57;;;;;;;16.65;9.60;;;;;;;19.48;63.83;102032.19;5031494;28;20025;-53
2022/06/10 08:33:23;;;;;;;17.77;9.70;;;;;;;19.47;64.20;102029.72;5036732;28;20029;-51
2022/06/10 08:35:48;;;;;;;17.05;9.82;;;;;;;19.56;64.73;102032.47;5050951;28;20086;-52
2022/06/10 08:38:16;;;;;;;17.85;9.88;;;;;;;19.63;63.82;102039.19;5051623;28;20101;-52
2022/06/10 08:41:22;;;;;;;16.55;9.10;;;;;;;19.74;64.05;102034.00;5050953;28;20025;-49
2022/06/10 08:43:57;;;;;;;19.67;9.30;;;;;;;19.87;62.84;102039.75;5051322;28;20028;-53
2022/06/10 08:46:59;;;;;;;21.58;9.40;;;;;;;20.00;62.00;102035.00;5049188;28;20136;-49
2022/06/10 08:49:41;;;;;;;16.13;9.43;;;;;;;19.92;61.18;102026.31;5032621;28;20017;-49
2022/06/10 08:52:20;;;;;;;20.00;9.30;;;;;;;19.93;60.82;102024.34;5032619;28;20029;-51
2022/06/10 08:55:23;;;;;;;19.10;9.48;;;;;;;20.06;61.58;102020.44;5030874;28;20036;-51
2022/06/10 08:57:49;;;;;;;18.65;9.15;;;;;;;20.14;59.34;102024.34;5032529;28;20384;-49
2022/06/10 09:00:28;;;;;;;18.48;9.32;;;;;;;20.16;60.08;102016.41;5032875;28;20028;-51
2022/06/10 09:03:05;;;;;;;19.67;9.55;;;;;;;20.24;60.19;102034.31;5032664;28;20101;-51
2022/06/10 09:05:36;;;;;;;19.10;10.05;;;;;;;20.27;59.19;102013.97;5032671;28;20108;-53
2022/06/10 09:08:07;;;;;;;16.98;9.43;;;;;;;20.30;59.12;102021.72;5032558;28;20025;-53
2022/06/10 09:10:51;;;;;;;16.17;9.00;;;;;;;20.36;58.59;102020.34;5032033;28;20518;-53
2022/06/10 09:13:27;;;;;;;18.70;8.95;;;;;;;20.35;59.71;102026.31;5032053;28;20061;-53
2022/06/10 09:16:07;;;;;;;16.70;8.60;;;;;;;20.41;59.63;102024.91;5031873;28;20036;-53
2022/06/10 09:18:50;;;;;;;19.50;9.43;;;;;;;20.48;58.95;102025.19;5032313;28;20100;-52
2022/06/10 09:21:25;;;;;;;18.55;9.68;;;;;;;20.60;58.39;102017.97;5031996;28;20517;-52
2022/06/10 09:23:55;;;;;;;18.67;9.30;;;;;;;20.69;57.51;102025.13;5030741;28;20021;-52
2022/06/10 09:26:49;;;;;;;19.65;9.40;;;;;;;20.78;57.86;102036.31;5031511;28;20056;-49
2022/06/10 09:29:16;;;;;;;23.48;10.07;;;;;;;20.68;57.90;102025.47;5032177;28;20037;-53
2022/06/10 09:31:56;;;;;;;19.20;9.82;;;;;;;20.82;58.38;102020.41;5031801;28;20022;-50
2022/06/10 09:34:38;;;;;;;19.80;9.70;;;;;;;20.73;59.48;102012.06;5031758;28;20029;-53
2022/06/10 09:37:17;;;;;;;21.90;10.75;;;;;;;20.76;60.26;102018.16;5032151;28;20084;-54
2022/06/10 09:42:49;;;;;;;20.17;9.65;;;;;;;20.85;59.01;102018.88;5030806;28;20399;-52
2022/06/10 09:45:17;;;;;;;19.42;9.20;;;;;;;20.99;59.08;102019.34;5031146;28;20528;-53
2022/06/10 09:48:13;;;;;;;16.08;9.45;;;;;;;21.03;58.17;102013.84;5030520;28;20060;-53
2022/06/10 09:50:57;;;;;;;18.88;9.57;;;;;;;21.11;57.60;102015.72;5031051;28;20040;-53
2022/06/10 09:53:36;;;;;;;;;;;;;;;21.32;58.59;102020.44;5031971;28;20152;-51
2022/06/10 09:56:34;;;;;;;18.83;10.02;;;;;;;21.36;58.60;102021.38;5031927;28;19920;-53
2022/06/10 09:59:14;;;;;;;20.08;10.48;;;;;;;21.27;57.44;102026.31;5031717;28;20053;-53
2022/06/10 10:02:06;;;;;;;17.70;10.00;;;;;;;21.24;57.93;102021.38;5050090;28;20104;-51
2022/06/10 10:04:55;;;;;;;18.73;9.77;;;;;;;21.27;57.69;102029.13;5051061;28;20033;-53
2022/06/10 10:07:35;;;;;;;21.45;10.13;;;;;;;21.25;57.73;102026.66;5051480;28;20072;-51
2022/06/10 10:10:17;;;;;;;21.52;10.52;;;;;;;21.27;57.42;102032.75;5051841;28;20102;-54
2022/06/10 10:13:23;;;;;;;18.98;10.10;;;;;;;21.38;58.65;102029.47;5051445;28;20024;-53
2022/06/10 10:16:19;;;;;;;20.92;10.30;;;;;;;21.60;58.21;102034.66;5029561;28;20048;-50
2022/06/10 10:19:12;;;;;;;20.25;9.90;;;;;;;21.80;57.32;102026.41;5029267;28;20025;-50
2022/06/10 10:21:55;;;;;;;22.77;10.15;;;;;;;21.90;56.35;102033.53;5029474;28;20041;-49
2022/06/10 10:24:24;;;;;;;19.38;10.63;;;;;;;22.03;55.69;102021.06;5033977;28;20041;-51
2022/06/10 10:26:51;;;;;;;19.88;10.07;;;;;;;22.03;55.43;102029.53;5031617;28;20049;-51
2022/06/10 10:29:21;;;;;;;18.33;10.10;;;;;;;22.02;55.22;102021.41;5031465;28;20025;-53
2022/06/10 10:31:56;;;;;;;19.77;9.98;;;;;;;22.09;55.45;102030.09;5031299;28;20026;-52
2022/06/10 10:34:26;;;;;;;19.80;10.57;;;;;;;22.04;55.70;102025.53;5030787;28;20025;-53
2022/06/10 10:36:57;;;;;;;20.00;10.80;;;;;;;22.16;55.35;102023.81;5030327;28;20116;-50
2022/06/10 10:39:32;;;;;;;18.67;10.13;;;;;;;22.32;56.07;102016.28;5031680;28;20064;-51
2022/06/10 10:42:01;;;;;;;21.50;10.60;;;;;;;22.31;55.44;102008.16;5031453;28;20025;-52
2022/06/10 10:44:49;;;;;;;21.10;10.80;;;;;;;22.60;57.55;102015.47;5029944;28;20495;-51
2022/06/10 10:47:21;;;;;;;19.70;10.13;;;;;;;22.82;55.08;101997.09;5030670;28;20079;-52
2022/06/10 10:49:58;;;;;;;21.15;10.75;;;;;;;22.92;54.86;102020.31;5031473;28;20025;-51
2022/06/10 10:52:28;;;;;;;21.15;10.40;;;;;;;22.99;55.07;102010.03;5031587;28;20084;-53
2022/06/10 10:55:21;;;;;;;18.88;10.43;;;;;;;23.03;54.36;102007.31;5031179;28;20142;-52
2022/06/10 10:58:08;;;;;;;20.02;10.70;;;;;;;23.15;55.42;102012.03;5031448;28;20480;-54
2022/06/10 11:00:43;;;;;;;17.15;10.20;;;;;;;23.26;54.86;102006.66;5033948;28;20360;-54
2022/06/10 11:03:22;;;;;;;19.65;11.13;;;;;;;23.23;54.63;102010.25;5034993;28;20021;-54
2022/06/10 11:05:49;;;;;;;20.70;10.88;;;;;;;22.97;54.36;102017.22;5033249;28;20030;-53
2022/06/10 11:08:37;;;;;;;22.33;11.35;;;;;;;23.09;55.42;102016.31;5034687;28;20353;-54
2022/06/10 11:11:17;;;;;;;19.83;10.77;;;;;;;23.09;54.74;102011.47;5033140;28;20127;-54
2022/06/10 11:13:47;;;;;;;19.88;10.88;;;;;;;23.01;53.58;102018.13;5034767;28;20021;-53
2022/06/10 11:16:17;;;;;;;19.77;11.38;;;;;;;22.70;54.45;102017.75;5034598;28;20072;-53
2022/06/10 11:18:46;;;;;;;21.33;11.65;;;;;;;22.44;54.57;102019.03;5034825;28;20029;-50
2022/06/10 11:21:12;;;;;;;22.40;11.50;;;;;;;22.37;55.14;102018.81;5034245;28;20025;-51
2022/06/10 11:23:50;;;;;;;21.80;11.50;;;;;;;22.36;55.83;102014.34;5034474;28;20061;-53
2022/06/10 11:26:18;;;;;;;19.52;11.05;;;;;;;22.31;56.14;102022.25;5034379;28;20465;-54
2022/06/10 11:28:45;;;;;;;20.05;10.95;;;;;;;22.32;56.42;102013.44;5034410;28;20049;-53
2022/06/10 11:31:22;;;;;;;21.13;10.43;;;;;;;22.33;56.88;102019.91;5034384;28;20344;-53
2022/06/10 11:33:52;;;;;;;20.25;10.95;;;;;;;22.36;56.20;102013.56;5033966;28;20029;-53
2022/06/10 11:36:42;;;;;;;20.65;10.98;;;;;;;22.54;56.06;102014.91;5034184;28;20360;-52
2022/06/10 11:39:15;;;;;;;20.00;11.38;;;;;;;22.62;55.96;102018.75;5033642;28;20052;-54
2022/06/10 11:41:41;;;;;;;19.17;11.60;;;;;;;22.72;56.66;102006.91;5034321;28;20025;-54
2022/06/10 11:44:20;;;;;;;19.38;11.00;;;;;;;23.11;56.25;102011.94;5032693;28;20029;-53
2022/06/10 11:47:22;;;;;;;23.42;10.95;;;;;;;23.46;55.98;101996.28;5034133;28;20079;-54
2022/06/10 11:49:58;;;;;;;22.55;11.02;;;;;;;23.52;54.87;102004.06;5036796;28;20044;-55